createdAt,value
2022-09-05T00:04:25.401Z,6.32
2022-09-05T00:09:08.933Z,6.15
2022-09-05T00:13:38.831Z,5.18
2022-09-05T00:24:17.456Z,4.97
2022-09-05T00:24:28.938Z,5.57
2022-09-05T00:29:14.880Z,6.20
2022-09-05T00:34:03.264Z,8.40
2022-09-05T00:38:27.518Z,6.40
2022-09-05T00:42:53.530Z,8.52
2022-09-05T00:47:27.894Z,6.45
2022-09-05T00:51:58.990Z,7.87
2022-09-05T00:56:35.065Z,5.60
2022-09-05T01:00:59.038Z,6.82
2022-09-05T01:05:36.747Z,6.53
2022-09-05T01:10:03.637Z,7.55
2022-09-05T01:14:51.912Z,9.88
2022-09-05T01:19:40.237Z,6.82
2022-09-05T01:23:56.309Z,5.75
2022-09-05T01:29:17.127Z,3.97
2022-09-05T01:33:06.309Z,5.45
2022-09-05T01:37:38.437Z,4.90
2022-09-05T01:42:07.395Z,10.38
2022-09-05T01:46:42.208Z,5.70
2022-09-05T01:51:31.655Z,6.57
2022-09-05T01:56:11.192Z,6.07
2022-09-05T02:00:47.362Z,5.60
2022-09-05T02:05:47.298Z,7.80
2022-09-05T02:10:29.390Z,7.18
2022-09-05T02:14:51.867Z,8.10
2022-09-05T02:19:15.622Z,6.20
2022-09-05T02:24:03.449Z,7.20
2022-09-05T02:28:37.670Z,5.85
2022-09-05T02:33:08.737Z,6.72
2022-09-05T02:39:11.504Z,5.93
2022-09-05T02:45:19.009Z,8.35
2022-09-05T02:47:41.228Z,7.15
2022-09-05T02:57:32.962Z,5.05
2022-09-05T02:57:46.866Z,8.43
2022-09-05T03:02:06.668Z,7.03
2022-09-05T03:06:41.386Z,7.22
2022-09-05T03:11:39.485Z,5.97
2022-09-05T03:16:27.024Z,6.10
2022-09-05T03:21:12.211Z,5.45
2022-09-05T03:25:43.566Z,4.82
2022-09-05T03:30:08.749Z,5.82
2022-09-05T03:34:43.322Z,5.20
2022-09-05T03:39:34.541Z,6.95
2022-09-05T03:43:50.665Z,6.25
2022-09-05T03:48:27.689Z,7.05
2022-09-05T03:57:20.404Z,8.75
2022-09-05T03:58:16.665Z,8.25
2022-09-05T04:08:09.078Z,6.22
2022-09-05T04:08:25.372Z,6.25
2022-09-05T04:12:40.649Z,7.28
2022-09-05T04:17:08.575Z,6.03
2022-09-05T04:21:32.383Z,5.28
2022-09-05T04:26:15.959Z,6.85
2022-09-05T04:30:49.607Z,5.28
2022-09-05T04:35:21.301Z,5.60
2022-09-05T04:39:37.832Z,7.00
2022-09-05T04:44:11.241Z,5.28
2022-09-05T04:48:33.024Z,7.20
2022-09-05T04:53:13.899Z,4.97
2022-09-05T04:57:53.624Z,5.70
2022-09-05T05:06:14.658Z,5.65
2022-09-05T05:07:26.656Z,7.25
2022-09-05T05:14:47.168Z,5.50
2022-09-05T05:18:15.779Z,6.57
2022-09-05T05:22:00.466Z,6.28
2022-09-05T05:26:27.831Z,5.30
2022-09-05T05:30:44.018Z,7.75
2022-09-05T05:35:09.040Z,5.37
2022-09-05T05:39:28.462Z,8.95
2022-09-05T05:43:46.797Z,6.87
2022-09-05T05:48:06.792Z,5.25
2022-09-05T05:52:46.282Z,9.95
2022-09-05T05:57:46.393Z,6.05
2022-09-05T06:02:21.492Z,6.55
2022-09-05T06:07:09.806Z,8.07
2022-09-05T06:14:54.847Z,5.65
2022-09-05T06:16:56.648Z,8.20
2022-09-05T06:22:10.529Z,6.93
2022-09-05T06:26:38.911Z,10.63
2022-09-05T06:31:29.232Z,10.90
2022-09-05T06:36:04.505Z,6.05
2022-09-05T06:40:50.436Z,10.13
2022-09-05T06:45:29.312Z,6.03
2022-09-05T06:50:27.309Z,4.18
2022-09-05T06:54:47.323Z,4.60
2022-09-05T06:59:52.905Z,7.95
2022-09-05T07:05:05.239Z,4.62
2022-09-05T07:09:17.238Z,6.80
2022-09-05T07:13:47.164Z,7.82
2022-09-05T07:18:11.064Z,7.87
2022-09-05T07:22:47.379Z,6.03
2022-09-05T07:27:08.919Z,5.45
2022-09-05T07:31:37.559Z,4.45
2022-09-05T07:35:55.601Z,4.55
2022-09-05T07:40:26.034Z,5.57
2022-09-05T07:44:56.570Z,6.05
2022-09-05T07:49:16.323Z,4.12
2022-09-05T07:56:48.886Z,7.68
2022-09-05T07:58:15.033Z,4.40
2022-09-05T08:02:32.157Z,5.85
2022-09-05T08:07:47.772Z,5.90
2022-09-05T08:11:32.548Z,7.78
2022-09-05T08:16:11.032Z,6.85
2022-09-05T08:21:00.673Z,7.87
2022-09-05T08:25:23.879Z,6.22
2022-09-05T08:29:51.293Z,4.62
2022-09-05T08:34:44.904Z,6.47
2022-09-05T08:39:03.777Z,5.25
2022-09-05T08:46:04.515Z,4.90
2022-09-05T08:48:20.229Z,4.80
2022-09-05T08:53:00.152Z,5.05
2022-09-05T08:57:38.875Z,6.20
2022-09-05T09:02:44.856Z,6.15
2022-09-05T09:07:50.631Z,6.12
2022-09-05T09:12:21.637Z,2.57
2022-09-05T09:16:40.806Z,3.40
2022-09-05T09:21:31.932Z,2.97
2022-09-05T09:26:11.248Z,4.80
2022-09-05T09:30:29.993Z,4.95
2022-09-05T09:35:24.085Z,7.35
2022-09-05T09:39:46.623Z,5.65
2022-09-05T09:44:40.285Z,5.50
2022-09-05T09:48:59.107Z,4.93
2022-09-05T09:53:22.724Z,4.03
2022-09-05T09:58:20.696Z,7.00
2022-09-05T10:07:54.544Z,6.05
2022-09-05T10:10:59.634Z,5.07
2022-09-05T10:12:42.780Z,4.57
2022-09-05T10:17:28.286Z,3.65
2022-09-05T10:27:03.070Z,4.82
2022-09-05T10:32:31.235Z,4.28
2022-09-05T10:36:19.571Z,7.10
2022-09-05T10:40:45.472Z,3.80
2022-09-05T10:45:33.410Z,4.78
2022-09-05T10:50:08.695Z,3.47
2022-09-05T10:54:42.739Z,6.72
2022-09-05T10:59:58.686Z,3.55
2022-09-05T11:03:52.312Z,3.12
2022-09-05T11:08:29.813Z,5.75
2022-09-05T11:13:05.197Z,3.42
2022-09-05T11:17:47.693Z,4.32
2022-09-05T11:22:23.012Z,5.65
2022-09-05T11:27:13.763Z,3.53
2022-09-05T11:34:00.153Z,4.12
2022-09-05T11:39:56.071Z,3.30
2022-09-05T11:41:46.723Z,5.03
2022-09-05T11:46:31.506Z,3.10
2022-09-05T11:51:05.690Z,4.05
2022-09-05T11:55:33.636Z,5.05
2022-09-05T12:00:33.554Z,6.30
2022-09-05T12:05:50.818Z,5.95
2022-09-05T12:10:01.959Z,4.35
2022-09-05T12:14:49.288Z,4.72
2022-09-05T12:19:28.697Z,6.22
2022-09-05T12:25:25.718Z,4.53
2022-09-05T12:29:28.177Z,3.15
2022-09-05T12:36:04.141Z,3.83
2022-09-05T12:40:56.096Z,4.62
2022-09-05T12:44:34.663Z,4.93
2022-09-05T12:48:26.006Z,3.22
2022-09-05T12:53:07.089Z,3.10
2022-09-05T13:02:45.389Z,4.53
2022-09-05T13:03:06.944Z,3.87
2022-09-05T13:06:59.439Z,5.32
2022-09-05T13:14:50.218Z,3.75
2022-09-05T13:15:57.077Z,4.90
2022-09-05T13:20:20.919Z,4.75
2022-09-05T13:24:41.581Z,4.05
2022-09-05T13:29:10.688Z,3.70
2022-09-05T13:38:41.934Z,5.47
2022-09-05T13:38:49.448Z,2.80
2022-09-05T13:43:21.960Z,3.00
2022-09-05T13:47:56.091Z,4.18
2022-09-05T13:52:39.458Z,2.20
2022-09-05T13:57:17.952Z,5.18
2022-09-05T14:02:25.389Z,3.10
2022-09-05T14:15:38.204Z,7.57
2022-09-05T14:20:13.940Z,2.62
2022-09-05T14:24:33.544Z,3.72
2022-09-05T14:29:14.138Z,2.40
2022-09-05T14:37:50.981Z,2.45
2022-09-05T14:38:56.794Z,2.37
2022-09-05T14:43:31.205Z,3.78
2022-09-05T14:48:13.196Z,3.53
2022-09-05T14:52:30.972Z,3.05
2022-09-05T15:00:55.086Z,3.55
2022-09-05T15:02:52.912Z,4.57
2022-09-05T15:06:16.525Z,6.43
2022-09-05T15:12:20.313Z,2.47
2022-09-05T15:15:08.428Z,2.58
2022-09-05T15:20:05.607Z,3.47
2022-09-05T15:24:31.485Z,2.08
2022-09-05T15:28:50.597Z,2.00
2022-09-05T15:33:31.570Z,4.12
2022-09-05T15:37:50.589Z,6.45
2022-09-05T15:42:21.626Z,4.72
2022-09-05T15:47:00.402Z,4.78
2022-09-05T15:51:32.069Z,4.47
2022-09-05T15:55:58.228Z,3.22
2022-09-05T16:00:51.297Z,2.83
2022-09-05T16:09:45.158Z,5.07
2022-09-05T16:10:47.148Z,7.43
2022-09-05T16:14:36.490Z,4.35
2022-09-05T16:23:17.946Z,7.37
2022-09-05T16:23:41.550Z,3.53
2022-09-05T16:27:59.470Z,3.92
2022-09-05T16:32:28.660Z,8.80
2022-09-05T16:37:05.149Z,4.45
2022-09-05T16:41:57.621Z,4.43
2022-09-05T16:46:22.858Z,4.95
2022-09-05T16:50:48.051Z,6.85
2022-09-05T16:55:36.107Z,5.05
2022-09-05T16:59:52.574Z,6.55
2022-09-05T17:04:29.812Z,3.90
2022-09-05T17:08:48.697Z,9.30
2022-09-05T17:13:06.535Z,6.28
2022-09-05T17:18:22.778Z,6.43
2022-09-05T17:28:01.164Z,18.23
2022-09-05T17:29:26.823Z,11.20
2022-09-05T17:32:06.064Z,9.77
2022-09-05T17:36:44.343Z,12.52
2022-09-05T17:41:07.953Z,14.00
2022-09-05T17:45:44.997Z,16.52
2022-09-05T17:50:33.357Z,13.45
2022-09-05T17:54:54.671Z,11.57
2022-09-05T17:59:19.352Z,7.20
2022-09-05T18:03:42.016Z,3.78
2022-09-05T18:07:59.239Z,12.50
2022-09-05T18:13:13.840Z,12.02
2022-09-05T18:17:48.329Z,5.55
2022-09-05T18:22:25.484Z,20.00
2022-09-05T18:26:45.009Z,12.10
2022-09-05T18:31:41.055Z,6.93
2022-09-05T18:35:58.554Z,10.43
2022-09-05T18:40:37.047Z,39.53
2022-09-05T18:45:01.454Z,41.03
2022-09-05T18:50:19.308Z,39.80
2022-09-05T18:54:17.690Z,24.48
2022-09-05T18:58:52.025Z,21.05
2022-09-05T19:03:08.427Z,15.15
2022-09-05T19:07:32.255Z,12.68
2022-09-05T19:12:33.481Z,14.35
2022-09-05T19:16:47.425Z,9.43
2022-09-05T19:21:11.910Z,4.53
2022-09-05T19:25:39.299Z,8.88
2022-09-05T19:36:53.517Z,9.13
2022-09-05T19:37:14.267Z,9.68
2022-09-05T19:39:19.736Z,5.40
2022-09-05T19:47:55.488Z,9.50
2022-09-05T19:48:53.415Z,9.48
2022-09-05T19:53:12.625Z,7.60
2022-09-05T19:57:29.413Z,8.05
2022-09-05T20:01:46.848Z,5.80
2022-09-05T20:06:03.139Z,9.10
2022-09-05T20:10:34.484Z,6.85
2022-09-05T20:14:50.574Z,6.20
2022-09-05T20:19:21.717Z,8.48
2022-09-05T20:23:51.513Z,7.78
2022-09-05T20:28:11.269Z,8.45
2022-09-05T20:32:39.327Z,5.72
2022-09-05T20:43:15.352Z,8.18
2022-09-05T20:43:29.181Z,36.17
2022-09-05T20:48:38.349Z,44.75
2022-09-05T20:54:23.205Z,28.10
2022-09-05T20:55:41.338Z,30.85
2022-09-05T21:00:06.548Z,22.48
2022-09-05T21:04:35.244Z,15.63
2022-09-05T21:08:53.522Z,15.10
2022-09-05T21:13:17.020Z,10.40
2022-09-05T21:17:33.462Z,7.70
2022-09-05T21:22:20.449Z,15.48
2022-09-05T21:26:36.940Z,8.07
2022-09-05T21:30:53.648Z,6.05
2022-09-05T21:35:34.346Z,7.32
2022-09-05T21:39:59.634Z,12.02
2022-09-05T21:47:46.596Z,7.25
2022-09-05T21:48:54.312Z,6.47
2022-09-05T21:56:26.906Z,5.60
2022-09-05T21:59:29.146Z,8.10
2022-09-05T22:02:34.853Z,4.93
2022-09-05T22:06:53.348Z,3.97
2022-09-05T22:11:10.875Z,6.90
2022-09-05T22:15:29.566Z,8.25
2022-09-05T22:19:46.839Z,9.25
2022-09-05T22:24:06.536Z,5.35
2022-09-05T22:28:28.802Z,8.55
2022-09-05T22:32:50.021Z,4.65
2022-09-05T22:37:06.236Z,7.18
2022-09-05T22:41:31.151Z,4.35
2022-09-05T22:45:47.532Z,3.55
2022-09-05T22:50:03.666Z,6.25
2022-09-05T22:54:19.724Z,4.95
2022-09-05T22:58:44.018Z,6.90
2022-09-05T23:03:01.619Z,3.75
2022-09-05T23:07:17.852Z,10.32
2022-09-05T23:11:34.023Z,8.95
2022-09-05T23:15:50.942Z,10.50
2022-09-05T23:20:07.500Z,11.95
2022-09-05T23:24:23.624Z,11.52
2022-09-05T23:28:43.117Z,6.70
2022-09-05T23:32:59.586Z,6.22
2022-09-05T23:37:16.023Z,5.00
2022-09-05T23:41:32.465Z,4.53
2022-09-05T23:45:48.759Z,11.60
2022-09-05T23:50:05.471Z,4.72
2022-09-05T23:54:21.585Z,3.87
2022-09-05T23:58:38.743Z,4.60
